createdAt,value
2019-01-05T00:02:12.183Z,21.57
2019-01-05T00:05:03.369Z,21.60
2019-01-05T00:08:17.628Z,23.20
2019-01-05T00:11:08.116Z,21.83
2019-01-05T00:13:57.000Z,22.07
2019-01-05T00:16:45.856Z,24.13
2019-01-05T00:19:59.823Z,24.90
2019-01-05T00:22:54.091Z,22.13
2019-01-05T00:26:14.800Z,22.77
2019-01-05T00:29:19.331Z,23.33
2019-01-05T00:32:44.752Z,23.30
2019-01-05T00:36:00.720Z,22.87
2019-01-05T00:39:04.581Z,22.33
2019-01-05T00:42:14.317Z,24.50
2019-01-05T00:45:13.109Z,24.00
2019-01-05T00:48:24.999Z,23.27
2019-01-05T00:51:30.669Z,23.93
2019-01-05T00:54:47.980Z,24.73
2019-01-05T00:57:46.958Z,23.37
2019-01-05T01:00:54.979Z,23.40
2019-01-05T01:03:51.422Z,23.93
2019-01-05T01:06:49.700Z,23.90
2019-01-05T01:09:41.463Z,23.47
2019-01-05T01:12:56.707Z,22.93
2019-01-05T01:16:01.474Z,22.10
2019-01-05T01:18:58.073Z,24.13
2019-01-05T01:21:51.218Z,22.67
2019-01-05T01:24:40.897Z,24.97
2019-01-05T01:27:33.683Z,22.73
2019-01-05T01:30:27.752Z,23.17
2019-01-05T01:33:24.919Z,22.53
2019-01-05T01:36:21.846Z,21.13
2019-01-05T01:39:19.575Z,21.87
2019-01-05T01:42:29.880Z,21.07
2019-01-05T01:45:30.433Z,22.80
2019-01-05T01:48:21.206Z,22.47
2019-01-05T01:51:14.552Z,21.43
2019-01-05T01:54:29.369Z,21.47
2019-01-05T01:57:33.476Z,22.03
2019-01-05T02:00:34.717Z,22.37
2019-01-05T02:03:31.116Z,21.73
2019-01-05T02:06:33.531Z,21.87
2019-01-05T02:09:25.365Z,21.93
2019-01-05T02:12:39.706Z,22.57
2019-01-05T02:15:32.810Z,20.43
2019-01-05T02:19:15.913Z,22.77
2019-01-05T02:22:20.442Z,22.77
2019-01-05T02:25:47.289Z,23.20
2019-01-05T02:29:19.761Z,21.27
2019-01-05T02:33:04.125Z,21.73
2019-01-05T02:36:33.392Z,21.57
2019-01-05T02:39:50.384Z,23.33
2019-01-05T02:43:27.627Z,21.70
2019-01-05T02:47:18.252Z,23.37
2019-01-05T02:51:05.125Z,23.90
2019-01-05T02:54:41.853Z,22.97
2019-01-05T02:58:20.688Z,24.37
2019-01-05T03:01:46.917Z,22.47
2019-01-05T03:05:09.172Z,21.90
2019-01-05T03:08:52.298Z,23.47
2019-01-05T03:12:46.573Z,22.83
2019-01-05T03:15:59.624Z,24.37
2019-01-05T03:19:38.447Z,24.03
2019-01-05T03:23:20.249Z,23.67
2019-01-05T03:26:37.878Z,24.47
2019-01-05T03:30:22.955Z,25.17
2019-01-05T03:33:54.826Z,24.23
2019-01-05T03:37:20.563Z,25.07
2019-01-05T03:41:00.094Z,23.90
2019-01-05T03:44:33.833Z,25.47
2019-01-05T03:48:04.240Z,23.93
2019-01-05T03:51:26.689Z,23.00
2019-01-05T03:54:55.680Z,23.70
2019-01-05T03:58:28.570Z,22.47
2019-01-05T04:09:05.211Z,21.03
2019-01-05T04:12:21.713Z,21.97
2019-01-05T04:15:58.905Z,20.13
2019-01-05T04:19:27.087Z,21.43
2019-01-05T04:23:19.323Z,19.67
2019-01-05T04:26:56.323Z,18.43
2019-01-05T04:30:11.396Z,16.77
2019-01-05T04:33:59.239Z,17.50
2019-01-05T04:37:44.510Z,17.00
2019-01-05T04:41:04.284Z,16.47
2019-01-05T04:44:44.370Z,16.63
2019-01-05T04:48:38.769Z,15.20
2019-01-05T04:52:14.461Z,14.33
2019-01-05T04:55:43.146Z,13.70
2019-01-05T04:58:53.277Z,14.77
2019-01-05T05:02:06.303Z,12.93
2019-01-05T05:05:57.311Z,13.53
2019-01-05T05:09:16.770Z,12.47
2019-01-05T05:12:44.663Z,12.97
2019-01-05T05:16:25.314Z,12.00
2019-01-05T05:20:11.133Z,11.43
2019-01-05T05:23:40.085Z,10.63
2019-01-05T05:27:35.147Z,11.33
2019-01-05T05:31:28.627Z,10.10
2019-01-05T05:34:53.804Z,9.53
2019-01-05T05:38:17.397Z,11.73
2019-01-05T05:42:06.691Z,11.50
2019-01-05T05:45:31.684Z,11.63
2019-01-05T05:49:17.567Z,9.43
2019-01-05T05:52:57.936Z,10.50
2019-01-05T05:56:27.591Z,11.13
2019-01-05T06:00:23.806Z,9.80
2019-01-05T06:03:49.827Z,8.70
2019-01-05T06:07:38.594Z,9.20
2019-01-05T06:11:13.533Z,10.13
2019-01-05T06:15:02.039Z,8.70
2019-01-05T06:18:51.378Z,7.93
2019-01-05T06:22:25.064Z,8.83
2019-01-05T06:25:51.417Z,8.63
2019-01-05T06:29:21.639Z,8.80
2019-01-05T06:32:45.535Z,7.83
2019-01-05T06:36:42.892Z,8.63
2019-01-05T06:40:20.053Z,9.00
2019-01-05T06:43:55.732Z,9.07
2019-01-05T06:47:45.740Z,9.43
2019-01-05T06:51:41.923Z,9.17
2019-01-05T06:54:52.958Z,9.37
2019-01-05T06:58:38.844Z,9.27
2019-01-05T07:02:26.177Z,8.53
2019-01-05T07:05:46.413Z,9.60
2019-01-05T07:13:01.249Z,10.77
2019-01-05T07:16:44.202Z,9.90
2019-01-05T07:20:36.888Z,11.43
2019-01-05T07:24:29.607Z,10.40
2019-01-05T07:28:04.442Z,11.90
2019-01-05T07:31:17.860Z,11.23
2019-01-05T07:34:55.046Z,11.30
2019-01-05T07:38:39.874Z,12.67
2019-01-05T07:42:27.988Z,11.93
2019-01-05T07:46:15.847Z,12.23
2019-01-05T07:49:42.797Z,13.50
2019-01-05T07:52:52.959Z,12.07
2019-01-05T07:56:32.953Z,12.83
2019-01-05T08:00:06.197Z,13.63
2019-01-05T08:03:44.523Z,14.17
2019-01-05T08:07:24.123Z,13.57
2019-01-05T08:10:54.200Z,13.70
2019-01-05T08:14:46.451Z,13.50
2019-01-05T08:18:36.952Z,12.87
2019-01-05T08:21:57.501Z,12.37
2019-01-05T08:25:45.201Z,12.50
2019-01-05T08:29:36.621Z,14.20
2019-01-05T08:33:07.150Z,12.70
2019-01-05T08:36:36.882Z,13.50
2019-01-05T08:40:23.586Z,12.93
2019-01-05T08:43:49.508Z,12.93
2019-01-05T08:47:14.779Z,13.23
2019-01-05T08:51:06.470Z,12.40
2019-01-05T08:54:50.189Z,11.73
2019-01-05T08:58:18.329Z,12.03
2019-01-05T09:01:58.739Z,12.17
2019-01-05T09:05:32.114Z,13.03
2019-01-05T09:09:21.127Z,12.43
2019-01-05T09:13:12.235Z,12.33
2019-01-05T09:16:51.063Z,11.40
2019-01-05T09:20:31.949Z,11.47
2019-01-05T09:24:18.140Z,11.03
2019-01-05T09:27:43.331Z,12.13
2019-01-05T09:31:33.778Z,16.27
2019-01-05T09:35:04.153Z,10.77
2019-01-05T09:38:30.243Z,10.20
2019-01-05T09:42:01.706Z,10.57
2019-01-05T09:45:38.146Z,9.67
2019-01-05T09:49:09.123Z,10.60
2019-01-05T09:52:58.451Z,10.57
2019-01-05T09:56:31.940Z,10.13
2019-01-05T10:00:03.026Z,10.27
2019-01-05T10:03:17.603Z,9.13
2019-01-05T10:06:53.279Z,9.20
2019-01-05T10:10:33.215Z,8.97
2019-01-05T10:14:13.439Z,9.33
2019-01-05T10:17:38.806Z,8.63
2019-01-05T10:21:36.796Z,8.93
2019-01-05T10:25:05.100Z,10.93
2019-01-05T10:29:00.559Z,8.57
2019-01-05T10:32:24.870Z,8.50
2019-01-05T10:35:43.360Z,7.90
2019-01-05T10:39:25.453Z,7.87
2019-01-05T10:43:23.271Z,10.00
2019-01-05T10:47:15.351Z,8.63
2019-01-05T10:50:48.114Z,8.80
2019-01-05T10:54:49.815Z,7.23
2019-01-05T10:58:16.163Z,8.23
2019-01-05T11:01:58.555Z,7.77
2019-01-05T11:05:27.680Z,7.33
2019-01-05T11:09:03.838Z,7.70
2019-01-05T11:12:51.383Z,6.80
2019-01-05T11:16:14.135Z,6.83
2019-01-05T11:19:38.519Z,6.50
2019-01-05T11:23:08.431Z,5.87
2019-01-05T11:27:02.442Z,7.10
2019-01-05T11:30:32.525Z,6.60
2019-01-05T11:34:32.303Z,6.90
2019-01-05T11:38:05.894Z,6.80
2019-01-05T11:42:02.427Z,6.17
2019-01-05T11:45:27.554Z,5.80
2019-01-05T11:48:53.701Z,5.47
2019-01-05T11:52:33.954Z,5.60
2019-01-05T11:55:54.967Z,5.60
2019-01-05T11:59:25.101Z,5.80
2019-01-05T12:02:53.172Z,5.70
2019-01-05T12:06:27.387Z,5.20
2019-01-05T12:10:16.053Z,5.23
2019-01-05T12:14:19.941Z,4.63
2019-01-05T12:17:49.175Z,5.10
2019-01-05T12:21:25.144Z,4.87
2019-01-05T12:29:23.061Z,4.90
2019-01-05T12:32:52.727Z,5.30
2019-01-05T12:36:33.002Z,4.60
2019-01-05T12:39:47.897Z,5.17
2019-01-05T12:43:32.432Z,4.63
2019-01-05T12:46:57.680Z,5.03
2019-01-05T12:50:33.539Z,4.60
2019-01-05T12:54:33.966Z,4.93
2019-01-05T12:57:39.803Z,5.13
2019-01-05T13:01:01.452Z,4.47
2019-01-05T13:04:42.619Z,4.53
2019-01-05T13:08:10.443Z,4.10
2019-01-05T13:11:40.027Z,4.10
2019-01-05T13:15:05.868Z,4.20
2019-01-05T13:18:35.166Z,3.60
2019-01-05T13:22:10.613Z,4.13
2019-01-05T13:25:59.161Z,2.93
2019-01-05T13:29:21.316Z,3.97
2019-01-05T13:33:18.071Z,4.57
2019-01-05T13:36:56.301Z,3.30
2019-01-05T13:40:39.830Z,2.97
2019-01-05T13:44:24.081Z,3.60
2019-01-05T13:48:09.373Z,2.70
2019-01-05T13:51:47.696Z,3.67
2019-01-05T13:54:45.153Z,3.23
2019-01-05T13:57:32.848Z,2.60
2019-01-05T14:00:33.504Z,2.00
2019-01-05T14:03:29.021Z,2.60
2019-01-05T14:06:23.010Z,2.47
2019-01-05T14:09:36.543Z,4.17
2019-01-05T14:12:25.901Z,3.80
2019-01-05T14:15:46.738Z,3.80
2019-01-05T14:18:36.489Z,1.63
2019-01-05T14:21:31.696Z,1.90
2019-01-05T14:24:30.091Z,2.70
2019-01-05T14:27:22.939Z,5.10
2019-01-05T14:30:15.908Z,2.17
2019-01-05T14:33:15.831Z,1.70
2019-01-05T14:36:00.143Z,1.50
2019-01-05T14:39:04.695Z,1.37
2019-01-05T14:42:12.390Z,3.00
2019-01-05T14:45:16.427Z,2.00
2019-01-05T14:48:04.553Z,2.40
2019-01-05T14:51:00.268Z,2.50
2019-01-05T14:53:59.997Z,6.50
2019-01-05T14:57:07.448Z,3.13
2019-01-05T14:59:58.097Z,2.17
2019-01-05T15:02:59.220Z,2.10
2019-01-05T15:05:55.599Z,2.20
2019-01-05T15:08:53.963Z,2.17
2019-01-05T15:11:44.754Z,2.57
2019-01-05T15:14:36.072Z,5.47
2019-01-05T15:17:38.389Z,3.17
2019-01-05T15:20:28.132Z,3.13
2019-01-05T15:23:22.444Z,4.53
2019-01-05T15:26:16.802Z,2.50
2019-01-05T15:29:21.544Z,2.23
2019-01-05T15:32:25.666Z,5.33
2019-01-05T15:35:28.438Z,5.60
2019-01-05T15:38:32.877Z,10.13
2019-01-05T15:41:30.221Z,6.87
2019-01-05T15:44:32.194Z,9.67
2019-01-05T15:47:31.495Z,5.57
2019-01-05T15:50:26.512Z,2.23
2019-01-05T15:53:28.825Z,4.03
2019-01-05T15:56:20.187Z,2.70
2019-01-05T15:59:18.686Z,2.73
2019-01-05T16:02:10.512Z,1.83
2019-01-05T16:05:25.382Z,3.90
2019-01-05T16:08:20.591Z,4.77
2019-01-05T16:11:22.869Z,2.70
2019-01-05T16:14:17.666Z,2.20
2019-01-05T16:17:19.608Z,3.20
2019-01-05T16:20:14.731Z,3.73
2019-01-05T16:23:10.758Z,5.07
2019-01-05T16:26:01.719Z,3.50
2019-01-05T16:28:59.125Z,1.93
2019-01-05T16:32:03.348Z,1.67
2019-01-05T16:35:00.398Z,3.00
2019-01-05T16:38:04.375Z,2.53
2019-01-05T16:40:56.037Z,2.20
2019-01-05T16:43:43.434Z,2.40
2019-01-05T16:46:33.450Z,3.40
2019-01-05T16:49:24.745Z,3.57
2019-01-05T16:52:26.122Z,2.90
2019-01-05T16:55:19.774Z,1.80
2019-01-05T16:58:18.269Z,2.37
2019-01-05T17:01:26.582Z,2.27
2019-01-05T17:04:31.419Z,2.00
2019-01-05T17:07:37.490Z,2.03
2019-01-05T17:10:31.874Z,1.93
2019-01-05T17:13:33.950Z,2.10
2019-01-05T17:16:24.549Z,1.87
2019-01-05T17:19:17.471Z,2.40
2019-01-05T17:22:10.134Z,2.40
2019-01-05T17:25:04.838Z,2.60
2019-01-05T17:27:54.827Z,2.67
2019-01-05T17:30:46.709Z,2.57
2019-01-05T17:33:36.434Z,2.20
2019-01-05T17:36:31.011Z,5.10
2019-01-05T17:39:25.735Z,3.10
2019-01-05T17:42:11.760Z,3.20
2019-01-05T17:45:06.188Z,2.97
2019-01-05T17:47:59.792Z,2.37
2019-01-05T17:51:10.447Z,2.40
2019-01-05T17:57:20.332Z,2.47
2019-01-05T18:00:15.906Z,1.83
2019-01-05T18:03:05.836Z,2.03
2019-01-05T18:06:02.820Z,2.30
2019-01-05T18:09:03.450Z,2.20
2019-01-05T18:11:58.929Z,2.27
2019-01-05T18:14:47.288Z,2.30
2019-01-05T18:17:50.784Z,2.47
2019-01-05T18:20:41.231Z,2.50
2019-01-05T18:23:38.545Z,2.50
2019-01-05T18:26:28.608Z,2.20
2019-01-05T18:29:20.351Z,2.57
2019-01-05T18:32:09.988Z,2.40
2019-01-05T18:35:07.184Z,2.53
2019-01-05T18:38:12.323Z,3.33
2019-01-05T18:41:11.743Z,2.37
2019-01-05T18:44:03.587Z,3.00
2019-01-05T18:47:06.272Z,3.03
2019-01-05T18:50:04.618Z,2.90
2019-01-05T18:52:54.533Z,2.90
2019-01-05T18:55:55.967Z,3.20
2019-01-05T18:58:51.222Z,3.43
2019-01-05T19:01:41.770Z,3.20
2019-01-05T19:04:31.948Z,2.63
2019-01-05T19:07:32.708Z,2.87
2019-01-05T19:13:30.385Z,3.70
2019-01-05T19:16:40.440Z,3.50
2019-01-05T19:19:32.026Z,3.97
2019-01-05T19:22:22.193Z,3.23
2019-01-05T19:25:12.368Z,3.40
2019-01-05T19:28:25.467Z,3.10
2019-01-05T19:31:19.047Z,4.10
2019-01-05T19:34:17.446Z,3.73
2019-01-05T19:37:10.485Z,3.60
2019-01-05T19:40:06.922Z,7.50
2019-01-05T19:42:58.220Z,4.00
2019-01-05T19:46:06.757Z,4.47
2019-01-05T19:48:56.392Z,5.03
2019-01-05T19:51:52.259Z,4.10
2019-01-05T19:55:05.895Z,4.33
2019-01-05T19:58:02.028Z,3.83
2019-01-05T20:00:49.902Z,4.13
2019-01-05T20:03:42.311Z,4.37
2019-01-05T20:06:44.582Z,4.47
2019-01-05T20:09:47.528Z,4.40
2019-01-05T20:12:38.883Z,5.03
2019-01-05T20:15:34.419Z,4.70
2019-01-05T20:18:38.940Z,4.43
2019-01-05T20:21:32.446Z,4.80
2019-01-05T20:24:37.747Z,4.63
2019-01-05T20:27:34.278Z,4.77
2019-01-05T20:30:31.220Z,5.37
2019-01-05T20:33:29.706Z,5.00
2019-01-05T20:36:20.396Z,4.60
2019-01-05T20:39:14.460Z,5.17
2019-01-05T20:42:14.623Z,6.30
2019-01-05T20:45:09.150Z,5.70
2019-01-05T20:47:59.618Z,6.03
2019-01-05T20:50:50.102Z,4.97
2019-01-05T20:53:47.779Z,5.03
2019-01-05T20:56:43.164Z,5.27
2019-01-05T20:59:35.124Z,4.80
2019-01-05T21:02:35.651Z,5.07
2019-01-05T21:05:49.496Z,5.20
2019-01-05T21:08:59.358Z,5.60
2019-01-05T21:11:51.776Z,6.60
2019-01-05T21:14:57.443Z,6.07
2019-01-05T21:17:59.909Z,5.47
2019-01-05T21:20:51.244Z,5.10
2019-01-05T21:23:53.760Z,5.20
2019-01-05T21:26:45.587Z,4.67
2019-01-05T21:29:35.942Z,4.17
2019-01-05T21:32:27.256Z,4.17
2019-01-05T21:35:28.716Z,4.00
2019-01-05T21:38:31.190Z,3.60
2019-01-05T21:41:25.390Z,4.37
2019-01-05T21:44:16.387Z,4.87
2019-01-05T21:47:19.934Z,3.93
2019-01-05T21:50:11.316Z,4.27
2019-01-05T21:53:07.134Z,4.03
2019-01-05T21:56:03.159Z,3.87
2019-01-05T21:59:02.264Z,3.47
2019-01-05T22:01:53.778Z,3.30
2019-01-05T22:04:45.710Z,3.60
2019-01-05T22:07:52.816Z,4.33
2019-01-05T22:10:43.612Z,4.70
2019-01-05T22:13:38.002Z,4.43
2019-01-05T22:16:45.530Z,5.30
2019-01-05T22:19:53.189Z,4.63
2019-01-05T22:23:00.371Z,7.40
2019-01-05T22:25:52.180Z,6.20
2019-01-05T22:28:48.838Z,5.37
2019-01-05T22:31:50.518Z,4.77
2019-01-05T22:34:50.745Z,4.97
2019-01-05T22:37:48.498Z,5.30
2019-01-05T22:40:39.210Z,5.17
2019-01-05T22:43:30.631Z,4.60
2019-01-05T22:46:23.404Z,5.27
2019-01-05T22:49:20.093Z,4.50
2019-01-05T22:52:15.534Z,3.97
2019-01-05T22:55:09.101Z,5.37
2019-01-05T22:58:03.608Z,4.10
2019-01-05T23:00:51.423Z,4.77
2019-01-05T23:03:42.296Z,5.37
2019-01-05T23:06:42.156Z,4.50
2019-01-05T23:09:52.006Z,4.37
2019-01-05T23:12:57.150Z,3.33
2019-01-05T23:16:04.127Z,3.70
2019-01-05T23:19:05.065Z,3.70
2019-01-05T23:21:56.014Z,3.90
2019-01-05T23:24:40.848Z,3.73
2019-01-05T23:27:32.983Z,3.17
2019-01-05T23:30:27.373Z,3.40
2019-01-05T23:33:18.990Z,2.70
2019-01-05T23:36:09.379Z,3.07
2019-01-05T23:42:03.698Z,3.03
2019-01-05T23:44:59.122Z,3.20
2019-01-05T23:47:49.123Z,4.10
2019-01-05T23:50:50.831Z,3.47
2019-01-05T23:53:40.746Z,3.63
2019-01-05T23:56:45.179Z,3.50
2019-01-05T23:59:34.630Z,2.80
